DAL311 KSFO-KSAN
Flight info
| Callsign | DAL311 |
|---|---|
| Flight time | N/A |
| Altitude | 37000 |
| Route | WESLA5 YYUNG LAX COMIX2 |
| Aircraft | B738/M-SDE2E3FGHIRWXY/LB1 |
Departure
| Time | 2026-05-06 04:50 |
|---|---|
| Airport | San Francisco International Airport (KSFO) |
Arrival
| Time | N/A |
|---|---|
| Airport | San Diego International Airport (KSAN) |
| Time | Latitude | Longitude | Altitude | Speed | Heading |
|---|---|---|---|---|---|
| 2026-05-06 04:23 | 37.61555 | -122.38272 | 10 ft | 0 kts | 218° |
| 2026-05-06 04:36 | 37.61558 | -122.38269 | 22 ft | 2 kts | 218° |
| 2026-05-06 04:37 | 37.61571 | -122.38256 | 25 ft | 2 kts | 217° |
| 2026-05-06 04:37 | 37.61585 | -122.38244 | 23 ft | 2 kts | 209° |
| 2026-05-06 04:37 | 37.61600 | -122.38241 | 22 ft | 2 kts | 128° |
| 2026-05-06 04:37 | 37.61605 | -122.38250 | 23 ft | 1 kts | 117° |
| 2026-05-06 04:42 | 37.61602 | -122.38243 | 22 ft | 5 kts | 117° |
| 2026-05-06 04:42 | 37.61570 | -122.38169 | 21 ft | 14 kts | 118° |
| 2026-05-06 04:42 | 37.61513 | -122.38076 | 21 ft | 12 kts | 165° |
| 2026-05-06 04:42 | 37.61448 | -122.38107 | 21 ft | 9 kts | 203° |
| 2026-05-06 04:43 | 37.61412 | -122.38094 | 21 ft | 0 kts | 149° |
| 2026-05-06 04:44 | 37.61411 | -122.38093 | 21 ft | 3 kts | 145° |
| 2026-05-06 04:44 | 37.61379 | -122.38025 | 21 ft | 0 kts | 115° |
| 2026-05-06 04:45 | 37.61323 | -122.37891 | 22 ft | 20 kts | 116° |
| 2026-05-06 04:45 | 37.61229 | -122.37633 | 21 ft | 23 kts | 89° |
| 2026-05-06 04:45 | 37.61263 | -122.37507 | 23 ft | 23 kts | 49° |
| 2026-05-06 04:46 | 37.61440 | -122.37377 | 21 ft | 22 kts | 27° |
| 2026-05-06 04:46 | 37.61550 | -122.37255 | 21 ft | 21 kts | 65° |
| 2026-05-06 04:46 | 37.61538 | -122.37079 | 21 ft | 21 kts | 118° |
| 2026-05-06 04:46 | 37.61492 | -122.36972 | 21 ft | 20 kts | 122° |
| 2026-05-06 04:47 | 37.61404 | -122.36837 | 21 ft | 21 kts | 131° |
| 2026-05-06 04:47 | 37.61320 | -122.36671 | 21 ft | 24 kts | 118° |
| 2026-05-06 04:47 | 37.61235 | -122.36470 | 21 ft | 28 kts | 118° |
| 2026-05-06 04:47 | 37.61145 | -122.36254 | 21 ft | 21 kts | 116° |
| 2026-05-06 04:48 | 37.61102 | -122.36136 | 21 ft | 12 kts | 84° |
| 2026-05-06 04:48 | 37.61166 | -122.36066 | 23 ft | 0 kts | 30° |
| 2026-05-06 04:48 | 37.61169 | -122.36064 | 22 ft | 4 kts | 30° |
| 2026-05-06 04:49 | 37.61247 | -122.36018 | 21 ft | 11 kts | 359° |
| 2026-05-06 04:49 | 37.61294 | -122.36124 | 21 ft | 35 kts | 291° |
| 2026-05-06 04:49 | 37.61556 | -122.36756 | 23 ft | 125 kts | 297° |
| 2026-05-06 04:49 | 37.62078 | -122.37989 | 148 ft | 189 kts | 299° |
| 2026-05-06 04:50 | 37.62843 | -122.39430 | 1154 ft | 206 kts | 306° |
| 2026-05-06 04:50 | 37.63485 | -122.41022 | 2267 ft | 206 kts | 294° |
| 2026-05-06 04:50 | 37.64144 | -122.42708 | 2698 ft | 222 kts | 297° |
| 2026-05-06 04:50 | 37.64893 | -122.44473 | 2949 ft | 230 kts | 298° |
| 2026-05-06 04:51 | 37.65665 | -122.46249 | 2970 ft | 232 kts | 298° |
| 2026-05-06 04:51 | 37.66448 | -122.48041 | 2984 ft | 234 kts | 296° |
| 2026-05-06 04:51 | 37.66837 | -122.50064 | 3014 ft | 248 kts | 267° |
| 2026-05-06 04:51 | 37.66317 | -122.52135 | 3002 ft | 251 kts | 236° |
| 2026-05-06 04:52 | 37.65011 | -122.53590 | 3012 ft | 257 kts | 207° |
| 2026-05-06 04:52 | 37.63262 | -122.54033 | 3035 ft | 261 kts | 178° |
| 2026-05-06 04:52 | 37.61510 | -122.53542 | 3037 ft | 264 kts | 162° |
| 2026-05-06 04:52 | 37.59793 | -122.52711 | 3028 ft | 264 kts | 159° |
| 2026-05-06 04:53 | 37.58094 | -122.51839 | 3136 ft | 266 kts | 159° |
| 2026-05-06 04:53 | 37.56368 | -122.50974 | 3952 ft | 266 kts | 160° |
| 2026-05-06 04:53 | 37.54669 | -122.50147 | 5131 ft | 259 kts | 160° |
| 2026-05-06 04:53 | 37.52976 | -122.49340 | 6087 ft | 262 kts | 159° |
| 2026-05-06 04:54 | 37.46963 | -122.46312 | 8764 ft | 282 kts | 151° |
| 2026-05-06 04:54 | 37.43298 | -122.43644 | 10332 ft | 296 kts | 147° |
| 2026-05-06 04:54 | 37.41442 | -122.42198 | 10585 ft | 321 kts | 147° |
| 2026-05-06 04:54 | 37.39470 | -122.40668 | 10813 ft | 344 kts | 147° |
| 2026-05-06 04:55 | 37.37423 | -122.39106 | 11366 ft | 353 kts | 147° |
| 2026-05-06 04:55 | 37.35299 | -122.37509 | 12093 ft | 357 kts | 148° |
| 2026-05-06 04:55 | 37.33147 | -122.35910 | 12855 ft | 361 kts | 148° |
| 2026-05-06 04:55 | 37.30969 | -122.34303 | 13592 ft | 366 kts | 148° |
| 2026-05-06 04:56 | 37.28759 | -122.32683 | 14277 ft | 370 kts | 148° |
| 2026-05-06 04:56 | 37.26526 | -122.31050 | 14943 ft | 374 kts | 148° |
| 2026-05-06 04:56 | 37.24267 | -122.29402 | 15641 ft | 376 kts | 147° |
| 2026-05-06 04:56 | 37.21997 | -122.27748 | 16336 ft | 379 kts | 147° |
| 2026-05-06 04:57 | 37.19712 | -122.26087 | 17056 ft | 381 kts | 147° |
| 2026-05-06 04:57 | 37.17352 | -122.24522 | 17672 ft | 389 kts | 156° |